createdAt,value
2022-12-18T00:01:35.871Z,98842.00
2022-12-18T00:04:07.416Z,98841.00
2022-12-18T00:06:36.455Z,98836.00
2022-12-18T00:09:05.134Z,98854.00
2022-12-18T00:11:32.990Z,98848.00
2022-12-18T00:14:01.539Z,98848.00
2022-12-18T00:16:31.276Z,98855.00
2022-12-18T00:18:58.728Z,98852.00
2022-12-18T00:21:26.507Z,98858.00
2022-12-18T00:23:53.752Z,98858.00
2022-12-18T00:26:30.712Z,98863.00
2022-12-18T00:29:02.021Z,98852.00
2022-12-18T00:31:29.603Z,98854.00
2022-12-18T00:33:58.132Z,98860.00
2022-12-18T00:36:31.005Z,98860.00
2022-12-18T00:39:00.018Z,98861.00
2022-12-18T00:41:46.897Z,98863.00
2022-12-18T00:44:17.644Z,98869.00
2022-12-18T00:46:46.280Z,98872.00
2022-12-18T00:49:13.393Z,98868.00
2022-12-18T00:51:40.823Z,98875.00
2022-12-18T00:54:08.004Z,98861.00
2022-12-18T00:56:45.752Z,98867.00
2022-12-18T00:59:16.177Z,98862.00
2022-12-18T01:01:43.724Z,98855.00
2022-12-18T01:04:11.004Z,98859.00
2022-12-18T01:06:38.072Z,98867.00
2022-12-18T01:09:05.607Z,98862.00
2022-12-18T01:11:32.686Z,98858.00
2022-12-18T01:14:01.033Z,98870.00
2022-12-18T01:16:28.461Z,98871.00
2022-12-18T01:18:56.518Z,98880.00
2022-12-18T01:21:25.121Z,98878.00
2022-12-18T01:23:57.785Z,98882.00
2022-12-18T01:26:26.896Z,98887.00
2022-12-18T01:28:58.895Z,98877.00
2022-12-18T01:31:29.599Z,98882.00
2022-12-18T01:33:57.293Z,98892.00
2022-12-18T01:36:36.690Z,98904.00
2022-12-18T01:39:12.147Z,98901.00
2022-12-18T01:41:58.187Z,98905.00
2022-12-18T01:45:05.338Z,98909.00
2022-12-18T01:47:56.285Z,98901.00
2022-12-18T01:50:25.492Z,98906.00
2022-12-18T01:53:22.753Z,98899.00
2022-12-18T01:55:53.320Z,98896.00
2022-12-18T01:58:25.459Z,98889.00
2022-12-18T02:00:52.663Z,98884.00
2022-12-18T02:03:19.850Z,98882.00
2022-12-18T02:06:13.719Z,98896.00
2022-12-18T02:09:15.022Z,98907.00
2022-12-18T02:11:57.488Z,98890.00
2022-12-18T02:14:58.217Z,98880.00
2022-12-18T02:17:33.006Z,98885.00
2022-12-18T02:20:18.096Z,98891.00
2022-12-18T02:23:28.489Z,98893.00
2022-12-18T02:26:40.231Z,98902.00
2022-12-18T02:29:09.843Z,98894.00
2022-12-18T02:31:57.444Z,98895.00
2022-12-18T02:34:30.431Z,98899.00
2022-12-18T02:37:01.829Z,98913.00
2022-12-18T02:39:30.673Z,98908.00
2022-12-18T02:41:59.700Z,98905.00
2022-12-18T02:44:26.908Z,98898.00
2022-12-18T02:46:55.441Z,98905.00
2022-12-18T02:49:28.872Z,98911.00
2022-12-18T02:52:35.658Z,98914.00
2022-12-18T02:56:02.050Z,98915.00
2022-12-18T03:02:13.842Z,98909.00
2022-12-18T03:05:01.830Z,98907.00
2022-12-18T03:07:59.968Z,98923.00
2022-12-18T03:10:32.190Z,98927.00
2022-12-18T03:13:16.026Z,98921.00
2022-12-18T03:15:54.442Z,98921.00
2022-12-18T03:18:36.997Z,98924.00
2022-12-18T03:21:07.661Z,98922.00
2022-12-18T03:23:44.735Z,98921.00
2022-12-18T03:26:17.360Z,98915.00
2022-12-18T03:28:52.394Z,98922.00
2022-12-18T03:31:23.710Z,98919.00
2022-12-18T03:33:56.326Z,98914.00
2022-12-18T03:36:24.856Z,98918.00
2022-12-18T03:38:52.687Z,98917.00
2022-12-18T03:41:46.101Z,98921.00
2022-12-18T03:44:40.455Z,98913.00
2022-12-18T03:47:20.772Z,98909.00
2022-12-18T03:49:50.523Z,98911.00
2022-12-18T03:52:26.468Z,98909.00
2022-12-18T03:54:56.236Z,98912.00
2022-12-18T03:57:28.264Z,98918.00
2022-12-18T04:00:12.425Z,98914.00
2022-12-18T04:02:54.167Z,98909.00
2022-12-18T04:05:23.155Z,98918.00
2022-12-18T04:07:52.935Z,98908.00
2022-12-18T04:10:20.352Z,98915.00
2022-12-18T04:12:47.568Z,98918.00
2022-12-18T04:15:14.821Z,98909.00
2022-12-18T04:17:50.460Z,98924.00
2022-12-18T04:20:18.443Z,98921.00
2022-12-18T04:22:46.010Z,98916.00
2022-12-18T04:25:13.428Z,98918.00
2022-12-18T04:27:40.750Z,98921.00
2022-12-18T04:30:09.336Z,98915.00
2022-12-18T04:32:36.743Z,98920.00
2022-12-18T04:35:05.295Z,98911.00
2022-12-18T04:37:32.428Z,98924.00
2022-12-18T04:40:00.098Z,98910.00
2022-12-18T04:42:27.109Z,98914.00
2022-12-18T04:44:54.106Z,98917.00
2022-12-18T04:47:21.116Z,98932.00
2022-12-18T04:49:48.123Z,98923.00
2022-12-18T04:52:15.260Z,98923.00
2022-12-18T04:54:42.265Z,98923.00
2022-12-18T04:57:09.299Z,98931.00
2022-12-18T04:59:36.776Z,98924.00
2022-12-18T05:02:03.999Z,98928.00
2022-12-18T05:04:31.113Z,98928.00
2022-12-18T05:06:58.252Z,98926.00
2022-12-18T05:09:25.286Z,98915.00
2022-12-18T05:11:52.361Z,98921.00
2022-12-18T05:14:19.583Z,98932.00
2022-12-18T05:16:46.636Z,98943.00
2022-12-18T05:19:13.812Z,98936.00
2022-12-18T05:21:41.392Z,98938.00
2022-12-18T05:24:08.833Z,98950.00
2022-12-18T05:26:35.836Z,98947.00
2022-12-18T05:29:02.995Z,98958.00
2022-12-18T05:31:32.411Z,98966.00
2022-12-18T05:34:03.040Z,98970.00
2022-12-18T05:36:30.043Z,98973.00
2022-12-18T05:38:57.117Z,98966.00
2022-12-18T05:41:24.193Z,98971.00
2022-12-18T05:43:51.243Z,98968.00
2022-12-18T05:46:19.206Z,98965.00
2022-12-18T05:48:46.977Z,98972.00
2022-12-18T05:51:17.695Z,98973.00
2022-12-18T05:53:45.016Z,98992.00
2022-12-18T05:56:18.617Z,98984.00
2022-12-18T05:58:46.227Z,98986.00
2022-12-18T06:01:21.210Z,98977.00
2022-12-18T06:03:48.399Z,98982.00
2022-12-18T06:06:25.927Z,98996.00
2022-12-18T06:08:54.368Z,99000.00
2022-12-18T06:11:25.390Z,99000.00
2022-12-18T06:13:58.151Z,98998.00
2022-12-18T06:16:27.264Z,99009.00
2022-12-18T06:18:56.976Z,98990.00
2022-12-18T06:21:24.108Z,98988.00
2022-12-18T06:23:51.154Z,98982.00
2022-12-18T06:26:20.179Z,98992.00
2022-12-18T06:28:50.503Z,98994.00
2022-12-18T06:31:17.766Z,99000.00
2022-12-18T06:33:44.817Z,99001.00
2022-12-18T06:36:14.176Z,98984.00
2022-12-18T06:38:44.138Z,98979.00
2022-12-18T06:41:16.494Z,98996.00
2022-12-18T06:43:44.829Z,99001.00
2022-12-18T06:46:13.195Z,99004.00
2022-12-18T06:48:40.646Z,99019.00
2022-12-18T06:51:10.014Z,99014.00
2022-12-18T06:53:37.337Z,99000.00
2022-12-18T06:56:11.154Z,98992.00
2022-12-18T06:58:39.996Z,98993.00
2022-12-18T07:01:12.096Z,99003.00
2022-12-18T07:03:42.196Z,99012.00
2022-12-18T07:06:21.772Z,99005.00
2022-12-18T07:08:56.030Z,99001.00
2022-12-18T07:11:23.915Z,99016.00
2022-12-18T07:13:50.978Z,99009.00
2022-12-18T07:16:24.860Z,99015.00
2022-12-18T07:18:53.668Z,99027.00
2022-12-18T07:21:22.073Z,99030.00
2022-12-18T07:23:50.883Z,99036.00
2022-12-18T07:26:20.801Z,99043.00
2022-12-18T07:28:48.773Z,99054.00
2022-12-18T07:31:21.511Z,99052.00
2022-12-18T07:33:49.270Z,99050.00
2022-12-18T07:36:16.589Z,99055.00
2022-12-18T07:38:54.001Z,99061.00
2022-12-18T07:41:21.739Z,99058.00
2022-12-18T07:43:49.100Z,99058.00
2022-12-18T07:46:17.706Z,99063.00
2022-12-18T07:48:50.235Z,99056.00
2022-12-18T07:51:19.388Z,99059.00
2022-12-18T07:53:46.835Z,99056.00
2022-12-18T07:56:27.129Z,99058.00
2022-12-18T07:58:55.373Z,99055.00
2022-12-18T08:01:22.644Z,99057.00
2022-12-18T08:03:52.521Z,99056.00
2022-12-18T08:06:24.283Z,99060.00
2022-12-18T08:09:00.200Z,99064.00
2022-12-18T08:11:29.733Z,99066.00
2022-12-18T08:13:57.875Z,99059.00
2022-12-18T08:16:25.076Z,99054.00
2022-12-18T08:18:54.647Z,99043.00
2022-12-18T08:21:31.808Z,99055.00
2022-12-18T08:24:01.856Z,99040.00
2022-12-18T08:26:39.939Z,99052.00
2022-12-18T08:29:07.044Z,99052.00
2022-12-18T08:31:36.525Z,99039.00
2022-12-18T08:34:09.278Z,99043.00
2022-12-18T08:36:37.098Z,99042.00
2022-12-18T08:39:04.193Z,99047.00
2022-12-18T08:41:31.986Z,99047.00
2022-12-18T08:44:19.630Z,99060.00
2022-12-18T08:46:46.793Z,99050.00
2022-12-18T08:49:14.130Z,99056.00
2022-12-18T08:51:41.285Z,99052.00
2022-12-18T08:54:18.054Z,99056.00
2022-12-18T08:56:47.498Z,99064.00
2022-12-18T08:59:20.152Z,99060.00
2022-12-18T09:01:49.205Z,99087.00
2022-12-18T09:04:16.585Z,99077.00
2022-12-18T09:06:43.587Z,99081.00
2022-12-18T09:09:11.912Z,99076.00
2022-12-18T09:11:39.313Z,99079.00
2022-12-18T09:14:06.771Z,99092.00
2022-12-18T09:16:36.133Z,99081.00
2022-12-18T09:19:05.695Z,99092.00
2022-12-18T09:21:37.444Z,99103.00
2022-12-18T09:24:09.108Z,99100.00
2022-12-18T09:26:37.260Z,99106.00
2022-12-18T09:29:05.517Z,99103.00
2022-12-18T09:31:32.721Z,99105.00
2022-12-18T09:33:59.919Z,99098.00
2022-12-18T09:36:29.998Z,99105.00
2022-12-18T09:38:57.047Z,99095.00
2022-12-18T09:41:47.086Z,99097.00
2022-12-18T09:44:26.074Z,99095.00
2022-12-18T09:47:33.734Z,99103.00
2022-12-18T09:50:34.273Z,99093.00
2022-12-18T09:53:07.901Z,99076.00
2022-12-18T09:55:43.533Z,99085.00
2022-12-18T09:58:11.257Z,99086.00
2022-12-18T10:00:38.355Z,99090.00
2022-12-18T10:03:13.598Z,99080.00
2022-12-18T10:06:08.216Z,99081.00
2022-12-18T10:08:54.879Z,99070.00
2022-12-18T10:11:54.255Z,99068.00
2022-12-18T10:14:48.551Z,99056.00
2022-12-18T10:17:53.300Z,99054.00
2022-12-18T10:20:49.633Z,99043.00
2022-12-18T10:23:48.038Z,99042.00
2022-12-18T10:26:15.717Z,99036.00
2022-12-18T10:28:47.830Z,99031.00
2022-12-18T10:31:20.512Z,99026.00
2022-12-18T10:33:47.857Z,99030.00
2022-12-18T10:36:15.344Z,99039.00
2022-12-18T10:38:43.257Z,99039.00
2022-12-18T10:41:26.719Z,99047.00
2022-12-18T10:44:29.217Z,99048.00
2022-12-18T10:47:10.172Z,99041.00
2022-12-18T10:49:52.457Z,99044.00
2022-12-18T10:52:26.257Z,99034.00
2022-12-18T10:55:06.987Z,99047.00
2022-12-18T10:57:36.668Z,99035.00
2022-12-18T11:00:26.036Z,99030.00
2022-12-18T11:02:53.920Z,99028.00
2022-12-18T11:05:33.945Z,99024.00
2022-12-18T11:08:04.473Z,99012.00
2022-12-18T11:10:43.034Z,99009.00
2022-12-18T11:13:27.492Z,99005.00
2022-12-18T11:15:54.653Z,99002.00
2022-12-18T11:18:33.187Z,99005.00
2022-12-18T11:21:08.636Z,99008.00
2022-12-18T11:23:37.634Z,99008.00
2022-12-18T11:26:07.066Z,99009.00
2022-12-18T11:28:47.613Z,98997.00
2022-12-18T11:31:29.233Z,98999.00
2022-12-18T11:36:50.843Z,98997.00
2022-12-18T11:39:24.925Z,98999.00
2022-12-18T11:42:12.748Z,99001.00
2022-12-18T11:44:52.940Z,99004.00
2022-12-18T11:47:40.858Z,98995.00
2022-12-18T11:50:53.346Z,98999.00
2022-12-18T11:53:21.562Z,98997.00
2022-12-18T11:55:56.104Z,98995.00
2022-12-18T11:58:35.075Z,98987.00
2022-12-18T12:01:20.042Z,98986.00
2022-12-18T12:04:38.708Z,98984.00
2022-12-18T12:07:57.893Z,98987.00
2022-12-18T12:10:36.676Z,98991.00
2022-12-18T12:13:46.630Z,98970.00
2022-12-18T12:16:30.960Z,98974.00
2022-12-18T12:19:18.821Z,98979.00
2022-12-18T12:22:41.268Z,98985.00
2022-12-18T12:25:30.792Z,98992.00
2022-12-18T12:28:24.243Z,98988.00
2022-12-18T12:31:04.271Z,98984.00
2022-12-18T12:34:08.738Z,98983.00
2022-12-18T12:37:21.923Z,98995.00
2022-12-18T12:39:49.348Z,98999.00
2022-12-18T12:42:49.695Z,99001.00
2022-12-18T12:45:29.712Z,98998.00
2022-12-18T12:47:59.249Z,99004.00
2022-12-18T12:50:27.134Z,98996.00
2022-12-18T12:53:00.598Z,98988.00
2022-12-18T12:55:29.928Z,98988.00
2022-12-18T12:58:17.691Z,98978.00
2022-12-18T13:01:09.913Z,98976.00
2022-12-18T13:04:15.433Z,98968.00
2022-12-18T13:07:04.639Z,98969.00
2022-12-18T13:09:36.881Z,98960.00
2022-12-18T13:12:30.298Z,98967.00
2022-12-18T13:15:42.456Z,98961.00
2022-12-18T13:18:09.528Z,98968.00
2022-12-18T13:20:52.241Z,98963.00
2022-12-18T13:23:41.123Z,98960.00
2022-12-18T13:26:11.412Z,98962.00
2022-12-18T13:28:48.029Z,98964.00
2022-12-18T13:31:43.394Z,98971.00
2022-12-18T13:34:33.514Z,98978.00
2022-12-18T13:37:46.406Z,98985.00
2022-12-18T13:41:05.772Z,98972.00
2022-12-18T13:43:48.788Z,98970.00
2022-12-18T13:46:31.754Z,98985.00
2022-12-18T13:49:24.295Z,98986.00
2022-12-18T13:51:55.822Z,98979.00
2022-12-18T13:54:38.282Z,98977.00
2022-12-18T13:57:11.317Z,98977.00
2022-12-18T13:59:40.667Z,98980.00
2022-12-18T14:02:18.274Z,98981.00
2022-12-18T14:04:50.561Z,98977.00
2022-12-18T14:07:20.391Z,98979.00
2022-12-18T14:10:06.446Z,98986.00
2022-12-18T14:13:01.134Z,98981.00
2022-12-18T14:15:42.064Z,98975.00
2022-12-18T14:18:32.725Z,98974.00
2022-12-18T14:21:02.684Z,98972.00
2022-12-18T14:23:39.890Z,98966.00
2022-12-18T14:26:30.729Z,98978.00
2022-12-18T14:29:02.776Z,98978.00
2022-12-18T14:31:33.238Z,98971.00
2022-12-18T14:34:00.239Z,98973.00
2022-12-18T14:36:30.854Z,98977.00
2022-12-18T14:39:03.709Z,98981.00
2022-12-18T14:41:34.112Z,98981.00
2022-12-18T14:44:08.245Z,98975.00
2022-12-18T14:46:41.330Z,98973.00
2022-12-18T14:49:34.912Z,98981.00
2022-12-18T14:52:06.677Z,98983.00
2022-12-18T14:54:38.324Z,98983.00
2022-12-18T14:57:16.251Z,98985.00
2022-12-18T14:59:43.379Z,98981.00
2022-12-18T15:02:27.290Z,98987.00
2022-12-18T15:05:22.324Z,98968.00
2022-12-18T15:07:53.685Z,98965.00
2022-12-18T15:10:24.948Z,98968.00
2022-12-18T15:13:10.770Z,98968.00
2022-12-18T15:15:38.075Z,98965.00
2022-12-18T15:18:22.675Z,98959.00
2022-12-18T15:21:05.292Z,98972.00
2022-12-18T15:23:54.199Z,98968.00
2022-12-18T15:26:23.203Z,98968.00
2022-12-18T15:28:59.455Z,98968.00
2022-12-18T15:31:37.579Z,98971.00
2022-12-18T15:34:15.057Z,98965.00
2022-12-18T15:36:44.200Z,98962.00
2022-12-18T15:39:14.250Z,98966.00
2022-12-18T15:41:41.651Z,98976.00
2022-12-18T15:44:26.536Z,98965.00
2022-12-18T15:46:53.882Z,98969.00
2022-12-18T15:49:21.096Z,98952.00
2022-12-18T15:51:54.530Z,98953.00
2022-12-18T15:54:44.863Z,98954.00
2022-12-18T15:57:25.031Z,98970.00
2022-12-18T15:59:55.148Z,98969.00
2022-12-18T16:02:25.993Z,98969.00
2022-12-18T16:04:56.346Z,98971.00
2022-12-18T16:07:23.857Z,98976.00
2022-12-18T16:09:52.183Z,98979.00
2022-12-18T16:12:26.147Z,98984.00
2022-12-18T16:14:53.287Z,98974.00
2022-12-18T16:17:22.269Z,98975.00
2022-12-18T16:19:49.349Z,98968.00
2022-12-18T16:22:22.401Z,98970.00
2022-12-18T16:24:51.298Z,98970.00
2022-12-18T16:27:18.435Z,98964.00
2022-12-18T16:29:46.685Z,98977.00
2022-12-18T16:32:17.274Z,98972.00
2022-12-18T16:34:47.902Z,98964.00
2022-12-18T16:37:16.886Z,98965.00
2022-12-18T16:39:44.303Z,98968.00
2022-12-18T16:42:20.961Z,98965.00
2022-12-18T16:44:49.926Z,98968.00
2022-12-18T16:47:18.268Z,98966.00
2022-12-18T16:49:47.290Z,98966.00
2022-12-18T16:52:16.185Z,98968.00
2022-12-18T16:54:46.422Z,98972.00
2022-12-18T16:57:16.382Z,98961.00
2022-12-18T16:59:43.699Z,98945.00
2022-12-18T17:02:23.536Z,98957.00
2022-12-18T17:04:55.194Z,98952.00
2022-12-18T17:07:22.337Z,98961.00
2022-12-18T17:09:52.400Z,98960.00
2022-12-18T17:12:21.024Z,98959.00
2022-12-18T17:14:50.527Z,98965.00
2022-12-18T17:17:22.708Z,98952.00
2022-12-18T17:19:52.526Z,98963.00
2022-12-18T17:22:20.983Z,98955.00
2022-12-18T17:24:48.275Z,98949.00
2022-12-18T17:27:16.054Z,98953.00
2022-12-18T17:29:47.691Z,98964.00
2022-12-18T17:32:19.510Z,98963.00
2022-12-18T17:34:49.563Z,98964.00
2022-12-18T17:37:19.338Z,98968.00
2022-12-18T17:39:46.723Z,98970.00
2022-12-18T17:42:16.419Z,98968.00
2022-12-18T17:44:45.173Z,98960.00
2022-12-18T17:47:14.892Z,98969.00
2022-12-18T17:49:47.790Z,98957.00
2022-12-18T17:52:20.046Z,98951.00
2022-12-18T17:54:49.610Z,98953.00
2022-12-18T17:57:17.275Z,98948.00
2022-12-18T17:59:44.834Z,98944.00
2022-12-18T18:02:12.450Z,98940.00
2022-12-18T18:04:39.802Z,98950.00
2022-12-18T18:07:06.871Z,98951.00
2022-12-18T18:09:34.002Z,98964.00
2022-12-18T18:12:22.654Z,98966.00
2022-12-18T18:14:50.004Z,98968.00
2022-12-18T18:17:17.978Z,98963.00
2022-12-18T18:19:49.618Z,98960.00
2022-12-18T18:22:18.027Z,98959.00
2022-12-18T18:24:47.211Z,98961.00
2022-12-18T18:27:16.131Z,98961.00
2022-12-18T18:29:45.429Z,98958.00
2022-12-18T18:32:12.622Z,98958.00
2022-12-18T18:34:39.973Z,98968.00
2022-12-18T18:37:07.082Z,98958.00
2022-12-18T18:39:34.435Z,98955.00
2022-12-18T18:42:03.639Z,98954.00
2022-12-18T18:44:30.826Z,98952.00
2022-12-18T18:46:59.040Z,98955.00
2022-12-18T18:49:27.901Z,98954.00
2022-12-18T18:51:56.957Z,98947.00
2022-12-18T18:54:25.539Z,98948.00
2022-12-18T18:59:40.506Z,98954.00
2022-12-18T19:02:11.634Z,98941.00
2022-12-18T19:04:43.093Z,98945.00
2022-12-18T19:07:12.973Z,98943.00
2022-12-18T19:09:42.132Z,98943.00
2022-12-18T19:12:28.680Z,98940.00
2022-12-18T19:14:56.049Z,98943.00
2022-12-18T19:17:28.062Z,98949.00
2022-12-18T19:19:56.893Z,98939.00
2022-12-18T19:22:24.284Z,98942.00
2022-12-18T19:24:51.403Z,98947.00
2022-12-18T19:27:18.439Z,98942.00
2022-12-18T19:29:45.448Z,98939.00
2022-12-18T19:32:12.596Z,98944.00
2022-12-18T19:34:40.233Z,98944.00
2022-12-18T19:37:07.430Z,98918.00
2022-12-18T19:39:34.692Z,98926.00
2022-12-18T19:42:02.356Z,98930.00
2022-12-18T19:44:29.537Z,98934.00
2022-12-18T19:46:56.569Z,98926.00
2022-12-18T19:49:23.538Z,98926.00
2022-12-18T19:51:51.259Z,98925.00
2022-12-18T19:54:18.450Z,98915.00
2022-12-18T19:56:46.086Z,98926.00
2022-12-18T19:59:13.924Z,98924.00
2022-12-18T20:01:41.583Z,98928.00
2022-12-18T20:04:09.060Z,98918.00
2022-12-18T20:06:52.400Z,98926.00
2022-12-18T20:09:20.732Z,98912.00
2022-12-18T20:11:49.316Z,98911.00
2022-12-18T20:14:19.671Z,98912.00
2022-12-18T20:16:52.323Z,98907.00
2022-12-18T20:19:20.775Z,98911.00
2022-12-18T20:21:48.209Z,98907.00
2022-12-18T20:24:17.362Z,98909.00
2022-12-18T20:26:44.357Z,98903.00
2022-12-18T20:29:11.432Z,98894.00
2022-12-18T20:31:38.562Z,98898.00
2022-12-18T20:34:06.213Z,98901.00
2022-12-18T20:36:36.271Z,98894.00
2022-12-18T20:39:06.433Z,98893.00
2022-12-18T20:41:38.215Z,98880.00
2022-12-18T20:44:21.686Z,98881.00
2022-12-18T20:46:56.397Z,98869.00
2022-12-18T20:49:25.927Z,98886.00
2022-12-18T20:51:56.489Z,98882.00
2022-12-18T20:54:26.533Z,98873.00
2022-12-18T20:56:53.724Z,98876.00
2022-12-18T20:59:23.162Z,98874.00
2022-12-18T21:01:52.134Z,98883.00
2022-12-18T21:04:23.256Z,98884.00
2022-12-18T21:06:55.744Z,98898.00
2022-12-18T21:09:27.706Z,98890.00
2022-12-18T21:12:16.965Z,98887.00
2022-12-18T21:14:44.941Z,98883.00
2022-12-18T21:17:13.803Z,98883.00
2022-12-18T21:19:40.925Z,98893.00
2022-12-18T21:22:08.446Z,98895.00
2022-12-18T21:24:35.630Z,98905.00
2022-12-18T21:27:02.739Z,98898.00
2022-12-18T21:29:30.175Z,98902.00
2022-12-18T21:31:57.508Z,98905.00
2022-12-18T21:34:28.525Z,98900.00
2022-12-18T21:36:57.983Z,98900.00
2022-12-18T21:39:27.553Z,98898.00
2022-12-18T21:42:14.427Z,98903.00
2022-12-18T21:44:42.526Z,98923.00
2022-12-18T21:47:22.821Z,98914.00
2022-12-18T21:49:52.200Z,98914.00
2022-12-18T21:52:20.067Z,98921.00
2022-12-18T21:54:49.191Z,98901.00
2022-12-18T21:57:16.240Z,98899.00
2022-12-18T21:59:43.756Z,98893.00
2022-12-18T22:02:15.621Z,98879.00
2022-12-18T22:04:44.608Z,98884.00
2022-12-18T22:07:13.692Z,98878.00
2022-12-18T22:09:41.018Z,98881.00
2022-12-18T22:12:09.221Z,98873.00
2022-12-18T22:14:36.770Z,98878.00
2022-12-18T22:17:04.133Z,98878.00
2022-12-18T22:19:33.413Z,98882.00
2022-12-18T22:22:02.721Z,98874.00
2022-12-18T22:24:29.908Z,98872.00
2022-12-18T22:27:02.040Z,98877.00
2022-12-18T22:29:48.364Z,98869.00
2022-12-18T22:32:22.116Z,98881.00
2022-12-18T22:35:09.499Z,98875.00
2022-12-18T22:37:39.948Z,98876.00
2022-12-18T22:43:23.539Z,98890.00
2022-12-18T22:45:50.572Z,98889.00
2022-12-18T22:48:17.775Z,98878.00
2022-12-18T22:50:45.448Z,98858.00
2022-12-18T22:53:12.459Z,98854.00
2022-12-18T22:55:39.934Z,98848.00
2022-12-18T22:58:06.976Z,98858.00
2022-12-18T23:00:34.004Z,98856.00
2022-12-18T23:03:01.741Z,98853.00
2022-12-18T23:05:30.858Z,98864.00
2022-12-18T23:07:58.854Z,98854.00
2022-12-18T23:10:26.449Z,98858.00
2022-12-18T23:12:53.542Z,98852.00
2022-12-18T23:15:27.946Z,98844.00
2022-12-18T23:17:56.789Z,98850.00
2022-12-18T23:20:23.999Z,98846.00
2022-12-18T23:22:51.173Z,98843.00
2022-12-18T23:25:21.077Z,98844.00
2022-12-18T23:27:48.166Z,98850.00
2022-12-18T23:30:15.694Z,98846.00
2022-12-18T23:32:42.863Z,98861.00
2022-12-18T23:35:10.004Z,98860.00
2022-12-18T23:38:03.687Z,98853.00
2022-12-18T23:40:27.530Z,98855.00
2022-12-18T23:42:54.655Z,98860.00
2022-12-18T23:45:21.731Z,98838.00
2022-12-18T23:47:50.927Z,98834.00
2022-12-18T23:50:18.599Z,98836.00
2022-12-18T23:52:45.632Z,98833.00
2022-12-18T23:55:12.643Z,98831.00
2022-12-18T23:57:39.655Z,98846.00
